Terminal Aerodrome Forecast
Issued by NWS Memphis, TN

Home | Current Version | Previous Version | Text Only | Print | Product List | Glossary On
Versions: 1 2 3 4 5 6 7 8 9 10 11 12 13 14 15 16 17 18 19 20 21 22 23 24 25 26 27
000
FTUS44 KMEG 312052 AAB
TAFMEM
TAF AMD
KMEM 312052Z 3121/0118 17006KT P6SM VCSH SCT045 BKN100
      TEMPO 3121/3122 VRB12KT 5SM SHRA BKN045
     FM010200 13004KT P6SM SKC
     FM011400 15006KT P6SM FEW035 SCT250=

USA.gov is the U.S. government's official web portal to all federal, state and local government web resources and services.